createdAt,value
2018-05-24T00:00:01.866Z,71.82
2018-05-24T00:00:33.083Z,71.87
2018-05-24T00:01:04.296Z,72.02
2018-05-24T00:01:35.567Z,72.26
2018-05-24T00:02:06.776Z,72.37
2018-05-24T00:02:37.992Z,72.44
2018-05-24T00:03:09.257Z,72.72
2018-05-24T00:03:40.481Z,72.81
2018-05-24T00:04:11.693Z,72.86
2018-05-24T00:04:42.900Z,72.99
2018-05-24T00:05:14.137Z,72.81
2018-05-24T00:05:45.361Z,72.67
2018-05-24T00:06:16.622Z,72.72
2018-05-24T00:06:47.883Z,72.70
2018-05-24T00:07:19.102Z,72.51
2018-05-24T00:07:50.343Z,72.25
2018-05-24T00:08:21.571Z,72.36
2018-05-24T00:08:52.780Z,72.00
2018-05-24T00:09:23.993Z,72.26
2018-05-24T00:09:55.211Z,72.43
2018-05-24T00:10:26.464Z,72.14
2018-05-24T00:10:57.673Z,72.23
2018-05-24T00:11:28.891Z,72.30
2018-05-24T00:12:00.105Z,72.16
2018-05-24T00:12:31.341Z,71.90
2018-05-24T00:13:02.548Z,71.94
2018-05-24T00:13:33.739Z,72.00
2018-05-24T00:14:04.957Z,71.52
2018-05-24T00:14:36.308Z,70.83
2018-05-24T00:15:08.441Z,70.92
2018-05-24T00:15:39.648Z,70.69
2018-05-24T00:16:10.861Z,70.42
2018-05-24T00:16:42.073Z,70.20
2018-05-24T00:17:13.316Z,69.84
2018-05-24T00:17:44.544Z,69.76
2018-05-24T00:18:15.770Z,69.93
2018-05-24T00:18:46.993Z,70.30
2018-05-24T00:19:18.206Z,69.93
2018-05-24T00:19:49.485Z,69.64
2018-05-24T00:20:20.714Z,69.78
2018-05-24T00:20:51.970Z,69.72
2018-05-24T00:21:23.185Z,69.50
2018-05-24T00:21:54.396Z,69.43
2018-05-24T00:22:25.620Z,69.34
2018-05-24T00:22:56.847Z,69.23
2018-05-24T00:23:28.109Z,68.95
2018-05-24T00:23:59.324Z,69.04
2018-05-24T00:24:30.529Z,68.90
2018-05-24T00:25:01.746Z,69.12
2018-05-24T00:25:32.958Z,69.02
2018-05-24T00:26:04.169Z,68.87
2018-05-24T00:26:35.390Z,68.65
2018-05-24T00:27:06.608Z,68.76
2018-05-24T00:27:37.885Z,68.48
2018-05-24T00:28:09.096Z,68.39
2018-05-24T00:28:40.308Z,68.65
2018-05-24T00:29:11.527Z,68.62
2018-05-24T00:29:42.754Z,68.76
2018-05-24T00:30:13.984Z,68.87
2018-05-24T00:30:45.192Z,68.81
2018-05-24T00:31:16.387Z,68.96
2018-05-24T00:31:47.596Z,69.36
2018-05-24T00:32:18.815Z,69.51
2018-05-24T00:32:50.096Z,68.91
2018-05-24T00:33:21.317Z,69.03
2018-05-24T00:33:52.532Z,69.09
2018-05-24T00:34:23.760Z,69.20
2018-05-24T00:34:54.996Z,68.97
2018-05-24T00:35:26.245Z,68.59
2018-05-24T00:35:57.473Z,68.68
2018-05-24T00:36:28.689Z,68.70
2018-05-24T00:36:59.881Z,68.81
2018-05-24T00:37:31.102Z,68.65
2018-05-24T00:38:02.412Z,68.66
2018-05-24T00:38:33.631Z,68.68
2018-05-24T00:39:04.849Z,68.74
2018-05-24T00:39:36.065Z,68.58
2018-05-24T00:40:07.311Z,68.65
2018-05-24T00:40:38.558Z,68.85
2018-05-24T00:41:09.787Z,69.00
2018-05-24T00:41:41.000Z,69.09
2018-05-24T00:42:12.217Z,69.29
2018-05-24T00:42:43.467Z,69.53
2018-05-24T00:43:14.693Z,69.51
2018-05-24T00:43:45.907Z,69.52
2018-05-24T00:44:17.159Z,69.55
2018-05-24T00:44:48.400Z,69.62
2018-05-24T00:45:19.683Z,69.49
2018-05-24T00:45:50.942Z,69.49
2018-05-24T00:46:22.153Z,69.80
2018-05-24T00:46:53.383Z,69.69
2018-05-24T00:47:24.596Z,69.92
2018-05-24T00:47:55.901Z,70.17
2018-05-24T00:48:27.113Z,70.58
2018-05-24T00:48:58.321Z,70.66
2018-05-24T00:49:29.534Z,70.42
2018-05-24T00:50:00.792Z,70.50
2018-05-24T00:50:32.094Z,70.36
2018-05-24T00:51:03.301Z,70.26
2018-05-24T00:51:34.513Z,70.11
2018-05-24T00:52:05.737Z,70.06
2018-05-24T00:52:36.949Z,69.84
2018-05-24T00:53:08.167Z,69.85
2018-05-24T00:53:39.393Z,69.88
2018-05-24T00:54:10.604Z,69.92
2018-05-24T00:54:41.952Z,70.09
2018-05-24T00:55:13.122Z,70.34
2018-05-24T00:55:44.345Z,70.19
2018-05-24T00:56:15.562Z,70.29
2018-05-24T00:56:46.777Z,70.47
2018-05-24T00:57:17.989Z,70.67
2018-05-24T00:57:49.209Z,70.75
2018-05-24T00:58:20.485Z,70.91
2018-05-24T00:58:51.690Z,71.00
2018-05-24T00:59:22.906Z,71.07
2018-05-24T00:59:54.133Z,70.98
2018-05-24T01:00:25.357Z,71.06
2018-05-24T01:00:56.566Z,71.11
2018-05-24T01:01:27.790Z,71.47
2018-05-24T01:01:59.006Z,72.01
2018-05-24T01:02:30.225Z,72.20
2018-05-24T01:03:01.443Z,72.93
2018-05-24T01:03:32.702Z,73.90
2018-05-24T01:04:03.926Z,73.51
2018-05-24T01:04:35.175Z,73.47
2018-05-24T01:05:06.383Z,73.74
2018-05-24T01:05:38.165Z,73.83
2018-05-24T01:06:09.425Z,73.90
2018-05-24T01:06:40.719Z,73.72
2018-05-24T01:07:11.908Z,74.39
2018-05-24T01:07:43.139Z,73.71
2018-05-24T01:08:14.352Z,73.31
2018-05-24T01:08:45.560Z,73.72
2018-05-24T01:09:16.777Z,73.72
2018-05-24T01:09:47.990Z,73.57
2018-05-24T01:10:19.248Z,73.50
2018-05-24T01:10:50.500Z,73.58
2018-05-24T01:11:21.694Z,73.36
2018-05-24T01:11:52.913Z,73.12
2018-05-24T01:12:24.121Z,73.04
2018-05-24T01:12:55.378Z,73.05
2018-05-24T01:13:26.603Z,74.06
2018-05-24T01:13:57.879Z,74.67
2018-05-24T01:14:29.099Z,75.15
2018-05-24T01:15:00.319Z,75.49
2018-05-24T01:15:31.593Z,75.47
2018-05-24T01:16:02.804Z,75.55
2018-05-24T01:16:34.013Z,75.52
2018-05-24T01:17:05.275Z,75.57
2018-05-24T01:17:36.489Z,75.82
2018-05-24T01:18:07.751Z,75.98
2018-05-24T01:18:38.978Z,76.13
2018-05-24T01:19:10.201Z,77.89
2018-05-24T01:19:41.456Z,77.91
2018-05-24T01:20:12.670Z,77.61
2018-05-24T01:20:43.949Z,77.76
2018-05-24T01:21:15.164Z,77.68
2018-05-24T01:21:46.378Z,76.85
2018-05-24T01:22:17.590Z,77.17
2018-05-24T01:22:48.831Z,77.22
2018-05-24T01:23:20.059Z,77.81
2018-05-24T01:23:51.296Z,77.93
2018-05-24T01:24:22.589Z,78.21
2018-05-24T01:24:53.871Z,78.73
2018-05-24T01:25:25.053Z,79.52
2018-05-24T01:25:56.299Z,80.36
2018-05-24T01:26:27.515Z,80.61
2018-05-24T01:26:58.735Z,80.63
2018-05-24T01:27:29.949Z,80.87
2018-05-24T01:28:01.230Z,81.03
2018-05-24T01:28:32.441Z,81.38
2018-05-24T01:29:03.670Z,81.13
2018-05-24T01:29:34.882Z,80.86
2018-05-24T01:30:06.083Z,80.84
2018-05-24T01:30:37.292Z,80.75
2018-05-24T01:31:08.527Z,80.68
2018-05-24T01:31:39.750Z,80.69
2018-05-24T01:32:10.965Z,80.91
2018-05-24T01:32:42.180Z,80.84
2018-05-24T01:33:13.440Z,80.93
2018-05-24T01:33:44.653Z,81.04
2018-05-24T01:34:15.882Z,81.16
2018-05-24T01:34:47.102Z,81.81
2018-05-24T01:35:18.366Z,82.52
2018-05-24T01:35:49.576Z,82.44
2018-05-24T01:36:20.787Z,82.22
2018-05-24T01:36:52.006Z,82.26
2018-05-24T01:37:23.233Z,82.12
2018-05-24T01:37:54.446Z,82.21
2018-05-24T01:38:25.638Z,82.52
2018-05-24T01:38:56.850Z,82.40
2018-05-24T01:39:28.064Z,82.31
2018-05-24T01:39:59.282Z,82.45
2018-05-24T01:40:30.541Z,82.72
2018-05-24T01:41:01.754Z,82.84
2018-05-24T01:41:32.965Z,82.98
2018-05-24T01:42:04.229Z,83.24
2018-05-24T01:42:35.437Z,83.52
2018-05-24T01:43:06.644Z,83.63
2018-05-24T01:43:37.868Z,83.53
2018-05-24T01:44:09.081Z,83.67
2018-05-24T01:44:40.305Z,83.23
2018-05-24T01:45:11.522Z,82.66
2018-05-24T01:45:42.769Z,82.60
2018-05-24T01:46:14.001Z,82.52
2018-05-24T01:46:45.216Z,82.76
2018-05-24T01:47:16.471Z,82.92
2018-05-24T01:47:47.681Z,82.80
2018-05-24T01:48:18.933Z,82.55
2018-05-24T01:48:50.173Z,82.62
2018-05-24T01:49:21.410Z,82.44
2018-05-24T01:49:52.641Z,81.87
2018-05-24T01:50:23.914Z,82.42
2018-05-24T01:50:55.136Z,82.45
2018-05-24T01:51:26.341Z,82.62
2018-05-24T01:51:57.554Z,82.02
2018-05-24T01:52:28.773Z,82.06
2018-05-24T01:52:59.971Z,82.16
2018-05-24T01:53:31.201Z,82.15
2018-05-24T01:54:02.423Z,82.35
2018-05-24T01:54:33.628Z,82.53
2018-05-24T01:55:04.841Z,82.80
2018-05-24T01:55:36.097Z,83.29
2018-05-24T01:56:07.415Z,83.30
2018-05-24T01:56:38.611Z,83.42
2018-05-24T01:57:09.869Z,83.49
2018-05-24T01:57:41.084Z,83.48
2018-05-24T01:58:12.308Z,83.48
2018-05-24T01:58:43.585Z,83.51
2018-05-24T01:59:14.805Z,83.70
2018-05-24T01:59:46.030Z,83.57
2018-05-24T02:00:17.302Z,83.62
2018-05-24T02:00:48.508Z,83.60
2018-05-24T02:01:19.732Z,83.74
2018-05-24T02:01:50.953Z,84.00
2018-05-24T02:02:22.191Z,84.04
2018-05-24T02:02:53.452Z,84.51
2018-05-24T02:03:24.665Z,84.67
2018-05-24T02:03:55.877Z,84.83
2018-05-24T02:04:27.097Z,84.52
2018-05-24T02:04:58.312Z,84.28
2018-05-24T02:05:29.529Z,83.69
2018-05-24T02:06:00.744Z,83.22
2018-05-24T02:06:31.956Z,83.43
2018-05-24T02:07:03.170Z,83.23
2018-05-24T02:07:34.442Z,83.01
2018-05-24T02:08:05.652Z,82.79
2018-05-24T02:08:36.879Z,83.21
2018-05-24T02:09:08.135Z,83.17
2018-05-24T02:09:39.436Z,83.13
2018-05-24T02:10:10.600Z,83.05
2018-05-24T02:10:41.809Z,82.79
2018-05-24T02:11:13.016Z,82.63
2018-05-24T02:11:44.257Z,82.72
2018-05-24T02:12:15.474Z,82.87
2018-05-24T02:12:46.684Z,82.56
2018-05-24T02:13:17.889Z,82.19
2018-05-24T02:13:49.105Z,82.20
2018-05-24T02:14:20.360Z,81.98
2018-05-24T02:14:51.576Z,82.05
2018-05-24T02:15:22.806Z,81.81
2018-05-24T02:15:54.009Z,81.67
2018-05-24T02:16:25.236Z,81.72
2018-05-24T02:16:56.434Z,81.83
2018-05-24T02:17:27.651Z,82.30
2018-05-24T02:17:58.879Z,82.37
2018-05-24T02:18:30.115Z,82.60
2018-05-24T02:19:01.339Z,82.48
2018-05-24T02:19:32.601Z,82.11
2018-05-24T02:20:03.818Z,81.83
2018-05-24T02:20:35.029Z,81.86
2018-05-24T02:21:06.244Z,82.22
2018-05-24T02:21:37.470Z,82.29
2018-05-24T02:22:08.677Z,82.24
2018-05-24T02:22:39.925Z,82.50
2018-05-24T02:23:11.133Z,82.81
2018-05-24T02:23:42.419Z,83.13
2018-05-24T02:24:13.703Z,83.16
2018-05-24T02:24:44.977Z,83.22
2018-05-24T02:25:16.185Z,83.25
2018-05-24T02:25:47.421Z,83.32
2018-05-24T02:26:18.712Z,83.22
2018-05-24T02:26:49.973Z,83.00
2018-05-24T02:27:21.196Z,83.04
2018-05-24T02:27:52.405Z,82.71
2018-05-24T02:28:23.613Z,82.81
2018-05-24T02:28:54.902Z,82.55
2018-05-24T02:29:26.202Z,82.63
2018-05-24T02:29:57.417Z,82.88
2018-05-24T02:30:28.647Z,83.07
2018-05-24T02:30:59.870Z,83.18
2018-05-24T02:31:31.082Z,83.26
2018-05-24T02:32:02.299Z,82.95
2018-05-24T02:32:33.525Z,82.87
2018-05-24T02:33:04.734Z,82.76
2018-05-24T02:33:36.008Z,82.75
2018-05-24T02:34:07.231Z,82.57
2018-05-24T02:34:38.463Z,82.53
2018-05-24T02:35:09.690Z,82.17
2018-05-24T02:35:40.916Z,82.65
2018-05-24T02:36:12.131Z,82.50
2018-05-24T02:36:43.338Z,82.51
2018-05-24T02:37:14.557Z,82.33
2018-05-24T02:37:45.826Z,82.34
2018-05-24T02:38:17.037Z,82.08
2018-05-24T02:38:48.351Z,81.64
2018-05-24T02:39:19.570Z,81.92
2018-05-24T02:39:50.786Z,81.79
2018-05-24T02:40:21.982Z,81.51
2018-05-24T02:40:53.194Z,81.49
2018-05-24T02:41:24.409Z,81.38
2018-05-24T02:41:55.625Z,80.89
2018-05-24T02:42:26.858Z,80.95
2018-05-24T02:42:58.182Z,80.99
2018-05-24T02:43:29.413Z,81.21
2018-05-24T02:44:00.702Z,80.92
2018-05-24T02:44:31.930Z,80.78
2018-05-24T02:45:03.205Z,80.75
2018-05-24T02:45:34.415Z,80.91
2018-05-24T02:46:05.707Z,80.71
2018-05-24T02:46:36.875Z,81.13
2018-05-24T02:47:08.084Z,81.06
2018-05-24T02:47:39.294Z,80.97
2018-05-24T02:48:10.528Z,80.85
2018-05-24T02:48:41.738Z,80.94
2018-05-24T02:49:12.946Z,80.90
2018-05-24T02:49:44.165Z,80.51
2018-05-24T02:50:15.398Z,80.53
2018-05-24T02:50:46.605Z,80.67
2018-05-24T02:51:17.818Z,80.75
2018-05-24T02:51:50.343Z,80.63
2018-05-24T02:52:21.553Z,80.09
2018-05-24T02:52:52.785Z,80.36
2018-05-24T02:53:24.022Z,80.08
2018-05-24T02:53:55.241Z,79.98
2018-05-24T02:54:26.462Z,79.87
2018-05-24T02:54:57.690Z,79.67
2018-05-24T02:55:28.956Z,79.92
2018-05-24T02:56:00.266Z,79.85
2018-05-24T02:56:31.481Z,79.76
2018-05-24T02:57:02.701Z,79.76
2018-05-24T02:57:33.929Z,79.87
2018-05-24T02:58:05.167Z,79.94
2018-05-24T02:58:36.428Z,79.94
2018-05-24T02:59:07.653Z,79.81
2018-05-24T02:59:38.889Z,79.96
2018-05-24T03:00:10.096Z,80.21
2018-05-24T03:00:41.354Z,80.04
2018-05-24T03:01:12.566Z,79.83
2018-05-24T03:01:43.797Z,79.59
2018-05-24T03:02:15.010Z,79.65
2018-05-24T03:02:46.246Z,79.49
2018-05-24T03:03:17.521Z,79.41
2018-05-24T03:03:48.734Z,79.16
2018-05-24T03:04:20.008Z,78.80
2018-05-24T03:04:51.222Z,78.96
2018-05-24T03:05:22.442Z,78.88
2018-05-24T03:05:53.662Z,79.69
2018-05-24T03:06:24.890Z,79.96
2018-05-24T03:06:56.138Z,80.04
2018-05-24T03:07:27.364Z,79.59
2018-05-24T03:07:58.581Z,79.68
2018-05-24T03:08:29.784Z,79.37
2018-05-24T03:09:01.000Z,78.97
2018-05-24T03:09:32.214Z,78.90
2018-05-24T03:10:03.437Z,79.05
2018-05-24T03:10:34.662Z,79.33
2018-05-24T03:11:05.904Z,78.70
2018-05-24T03:11:37.112Z,78.89
2018-05-24T03:12:08.364Z,79.40
2018-05-24T03:12:39.575Z,79.45
2018-05-24T03:13:10.789Z,79.40
2018-05-24T03:13:42.001Z,79.57
2018-05-24T03:14:13.273Z,79.38
2018-05-24T03:14:44.489Z,79.32
2018-05-24T03:15:15.705Z,79.42
2018-05-24T03:15:46.918Z,79.43
2018-05-24T03:16:18.169Z,79.93
2018-05-24T03:16:49.385Z,79.97
2018-05-24T03:17:20.634Z,79.24
2018-05-24T03:17:51.845Z,79.03
2018-05-24T03:18:23.061Z,79.24
2018-05-24T03:18:54.297Z,79.38
2018-05-24T03:19:25.554Z,79.36
2018-05-24T03:19:56.765Z,78.70
2018-05-24T03:20:27.987Z,78.83
2018-05-24T03:20:59.198Z,79.27
2018-05-24T03:21:30.409Z,79.60
2018-05-24T03:22:01.617Z,79.68
2018-05-24T03:22:32.824Z,79.67
2018-05-24T03:23:04.070Z,79.57
2018-05-24T03:23:35.285Z,79.14
2018-05-24T03:24:06.513Z,79.08
2018-05-24T03:24:37.740Z,79.27
2018-05-24T03:25:08.962Z,79.54
2018-05-24T03:25:40.185Z,79.63
2018-05-24T03:26:11.413Z,78.86
2018-05-24T03:26:42.635Z,78.26
2018-05-24T03:27:13.850Z,77.52
2018-05-24T03:27:45.093Z,77.10
2018-05-24T03:28:16.304Z,77.44
2018-05-24T03:28:48.261Z,77.69
2018-05-24T03:29:19.501Z,77.32
2018-05-24T03:29:50.710Z,77.36
2018-05-24T03:30:21.925Z,77.43
2018-05-24T03:30:53.183Z,77.21
2018-05-24T03:31:24.395Z,77.54
2018-05-24T03:31:56.225Z,77.65
2018-05-24T03:32:27.465Z,78.01
2018-05-24T03:32:58.679Z,77.62
2018-05-24T03:33:29.893Z,77.49
2018-05-24T03:34:01.145Z,77.85
2018-05-24T03:34:32.358Z,77.73
2018-05-24T03:35:03.768Z,77.60
2018-05-24T03:35:34.985Z,77.33
2018-05-24T03:36:06.207Z,77.11
2018-05-24T03:36:37.444Z,77.18
2018-05-24T03:37:08.664Z,77.33
2018-05-24T03:37:39.877Z,77.63
2018-05-24T03:38:11.091Z,76.95
2018-05-24T03:38:42.357Z,76.89
2018-05-24T03:39:13.621Z,76.68
2018-05-24T03:39:44.830Z,76.37
2018-05-24T03:40:16.051Z,76.63
2018-05-24T03:40:47.263Z,76.44
2018-05-24T03:41:18.499Z,76.41
2018-05-24T03:41:49.712Z,76.83
2018-05-24T03:42:21.324Z,76.57
2018-05-24T03:42:52.534Z,76.43
2018-05-24T03:43:23.744Z,76.16
2018-05-24T03:43:55.000Z,76.30
2018-05-24T03:44:26.268Z,76.67
2018-05-24T03:44:57.486Z,76.63
2018-05-24T03:45:28.701Z,77.16
2018-05-24T03:45:59.911Z,77.38
2018-05-24T03:46:31.179Z,77.19
2018-05-24T03:47:02.385Z,77.13
2018-05-24T03:47:33.605Z,76.61
2018-05-24T03:48:04.809Z,76.80
2018-05-24T03:48:36.041Z,77.01
2018-05-24T03:49:07.282Z,76.95
2018-05-24T03:49:38.496Z,77.11
2018-05-24T03:50:09.724Z,77.72
2018-05-24T03:50:40.947Z,77.54
2018-05-24T03:51:12.162Z,77.37
2018-05-24T03:51:43.417Z,77.67
2018-05-24T03:52:14.769Z,77.65
2018-05-24T03:52:45.914Z,77.74
2018-05-24T03:53:17.132Z,77.66
2018-05-24T03:53:49.113Z,77.26
2018-05-24T03:54:20.336Z,76.97
2018-05-24T03:54:51.589Z,76.43
2018-05-24T03:55:22.805Z,75.14
2018-05-24T03:55:54.016Z,74.96
2018-05-24T03:56:25.256Z,75.29
2018-05-24T03:56:56.513Z,75.39
2018-05-24T03:57:27.741Z,75.72
2018-05-24T03:57:58.950Z,75.49
2018-05-24T03:58:30.272Z,75.53
2018-05-24T03:59:01.485Z,75.18
2018-05-24T03:59:33.669Z,75.46
2018-05-24T04:00:04.900Z,75.51
2018-05-24T04:00:36.194Z,75.32
2018-05-24T04:01:07.980Z,75.38
2018-05-24T04:01:39.189Z,75.29
2018-05-24T04:02:10.449Z,75.38
2018-05-24T04:02:41.679Z,75.45
2018-05-24T04:03:12.900Z,75.51
2018-05-24T04:03:44.105Z,75.16
2018-05-24T04:04:15.377Z,75.08
2018-05-24T04:04:46.597Z,75.10
2018-05-24T04:05:17.804Z,74.58
2018-05-24T04:05:49.088Z,74.86
2018-05-24T04:06:20.257Z,75.40
2018-05-24T04:06:51.481Z,75.28
2018-05-24T04:07:22.734Z,75.45
2018-05-24T04:07:53.945Z,75.45
2018-05-24T04:08:25.186Z,75.62
2018-05-24T04:08:56.401Z,75.48
2018-05-24T04:09:58.674Z,76.08
2018-05-24T04:10:29.893Z,76.08
2018-05-24T04:11:01.161Z,76.52
2018-05-24T04:11:32.385Z,76.81
2018-05-24T04:12:03.656Z,77.23
2018-05-24T04:12:34.896Z,77.38
2018-05-24T04:13:06.125Z,77.32
2018-05-24T04:13:37.330Z,77.57
2018-05-24T04:14:08.554Z,77.54
2018-05-24T04:14:39.755Z,77.71
2018-05-24T04:15:10.961Z,78.24
2018-05-24T04:15:42.181Z,78.42
2018-05-24T04:16:13.392Z,78.55
2018-05-24T04:16:44.637Z,78.55
2018-05-24T04:17:15.855Z,78.69
2018-05-24T04:17:47.072Z,78.98
2018-05-24T04:18:18.290Z,79.43
2018-05-24T04:18:49.531Z,79.43
2018-05-24T04:19:20.741Z,79.70
2018-05-24T04:19:51.965Z,79.60
2018-05-24T04:20:23.167Z,79.80
2018-05-24T04:20:54.413Z,79.56
2018-05-24T04:21:25.686Z,79.08
2018-05-24T04:21:56.902Z,79.03
2018-05-24T04:22:28.123Z,79.05
2018-05-24T04:22:59.337Z,79.29
2018-05-24T04:23:30.555Z,79.41
2018-05-24T04:24:01.852Z,79.42
2018-05-24T04:24:33.069Z,79.60
2018-05-24T04:25:04.318Z,79.75
2018-05-24T04:25:35.538Z,79.81
2018-05-24T04:26:06.823Z,79.68
2018-05-24T04:26:38.061Z,79.45
2018-05-24T04:27:09.332Z,79.09
2018-05-24T04:27:40.557Z,78.99
2018-05-24T04:28:11.769Z,78.72
2018-05-24T04:28:43.002Z,78.48
2018-05-24T04:29:14.221Z,78.51
2018-05-24T04:29:45.438Z,78.63
2018-05-24T04:30:16.648Z,78.71
2018-05-24T04:30:48.732Z,78.51
2018-05-24T04:31:19.957Z,77.97
2018-05-24T04:31:51.169Z,77.82
2018-05-24T04:32:22.433Z,78.16
2018-05-24T04:32:53.646Z,78.83
2018-05-24T04:33:24.905Z,78.43
2018-05-24T04:33:56.117Z,78.06
2018-05-24T04:34:27.316Z,77.85
2018-05-24T04:34:58.535Z,77.95
2018-05-24T04:35:29.753Z,77.97
2018-05-24T04:36:01.012Z,78.23
2018-05-24T04:36:32.221Z,78.48
2018-05-24T04:37:03.433Z,78.57
2018-05-24T04:37:34.657Z,78.69
2018-05-24T04:38:05.869Z,78.74
2018-05-24T04:38:37.137Z,79.04
2018-05-24T04:39:08.353Z,79.01
2018-05-24T04:39:39.565Z,78.66
2018-05-24T04:40:10.777Z,77.98
2018-05-24T04:40:42.006Z,77.85
2018-05-24T04:41:13.302Z,77.98
2018-05-24T04:41:44.522Z,78.06
2018-05-24T04:42:15.732Z,77.15
2018-05-24T04:42:46.947Z,77.03
2018-05-24T04:43:18.175Z,77.25
2018-05-24T04:43:49.400Z,77.69
2018-05-24T04:44:20.616Z,77.55
2018-05-24T04:44:51.856Z,76.86
2018-05-24T04:45:23.152Z,76.90
2018-05-24T04:45:54.333Z,76.85
2018-05-24T04:46:25.597Z,76.63
2018-05-24T04:46:56.821Z,76.41
2018-05-24T04:47:28.036Z,76.22
2018-05-24T04:47:59.276Z,75.68
2018-05-24T04:48:30.489Z,75.87
2018-05-24T04:49:01.697Z,75.19
2018-05-24T04:49:32.911Z,74.95
2018-05-24T04:50:04.133Z,75.05
2018-05-24T04:50:35.341Z,75.29
2018-05-24T04:51:06.565Z,75.36
2018-05-24T04:51:37.812Z,75.60
2018-05-24T04:52:09.043Z,75.58
2018-05-24T04:52:40.299Z,75.78
2018-05-24T04:53:11.513Z,75.65
2018-05-24T04:53:42.799Z,75.52
2018-05-24T04:54:14.025Z,75.51
2018-05-24T04:54:45.238Z,75.99
2018-05-24T04:55:16.461Z,76.00
2018-05-24T04:55:47.727Z,75.63
2018-05-24T04:56:18.977Z,75.42
2018-05-24T04:56:50.221Z,75.22
2018-05-24T04:57:21.435Z,75.62
2018-05-24T04:57:52.654Z,75.02
2018-05-24T04:58:23.912Z,74.77
2018-05-24T04:58:55.159Z,74.54
2018-05-24T04:59:26.372Z,74.96
2018-05-24T04:59:57.586Z,75.27
2018-05-24T05:00:28.805Z,75.29
2018-05-24T05:01:00.027Z,75.48
2018-05-24T05:01:31.292Z,74.19
2018-05-24T05:02:02.821Z,72.67
2018-05-24T05:02:34.080Z,70.58
2018-05-24T05:03:05.333Z,71.28
2018-05-24T05:03:36.549Z,71.83
2018-05-24T05:04:07.769Z,71.16
2018-05-24T05:04:39.725Z,71.55
2018-05-24T05:05:10.933Z,72.45
2018-05-24T05:05:42.157Z,73.94
2018-05-24T05:06:13.410Z,74.08
2018-05-24T05:06:44.630Z,73.99
2018-05-24T05:07:15.841Z,73.50
2018-05-24T05:07:47.090Z,74.08
2018-05-24T05:08:18.301Z,75.12
2018-05-24T05:08:49.567Z,75.36
2018-05-24T05:09:20.790Z,75.70
2018-05-24T05:09:51.986Z,75.60
2018-05-24T05:10:23.205Z,75.30
2018-05-24T05:10:54.405Z,74.80
2018-05-24T05:11:25.653Z,72.98
2018-05-24T05:11:56.875Z,72.29
2018-05-24T05:12:28.101Z,71.75
2018-05-24T05:12:59.322Z,71.34
2018-05-24T05:13:30.547Z,71.09
2018-05-24T05:14:01.811Z,70.49
2018-05-24T05:14:33.131Z,70.04
2018-05-24T05:15:04.293Z,70.35
2018-05-24T05:15:35.506Z,69.96
2018-05-24T05:16:06.785Z,70.37
2018-05-24T05:16:38.813Z,70.49
2018-05-24T05:17:10.013Z,70.72
2018-05-24T05:17:41.229Z,70.96
2018-05-24T05:18:12.457Z,71.25
2018-05-24T05:18:43.696Z,71.57
2018-05-24T05:19:14.926Z,72.04
2018-05-24T05:19:47.162Z,72.31
2018-05-24T05:20:18.396Z,72.58
2018-05-24T05:20:49.624Z,72.67
2018-05-24T05:21:20.884Z,72.61
2018-05-24T05:21:52.106Z,72.79
2018-05-24T05:22:23.321Z,73.21
2018-05-24T05:22:54.553Z,72.76
2018-05-24T05:23:25.851Z,70.12
2018-05-24T05:23:57.022Z,70.01
2018-05-24T05:24:28.250Z,71.14
2018-05-24T05:24:59.468Z,70.56
2018-05-24T05:25:30.690Z,69.91
2018-05-24T05:26:01.917Z,69.66
2018-05-24T05:26:33.181Z,69.28
2018-05-24T05:27:04.405Z,69.93
2018-05-24T05:27:35.629Z,70.03
2018-05-24T05:28:06.874Z,69.95
2018-05-24T05:28:38.100Z,68.74
2018-05-24T05:29:09.319Z,67.93
2018-05-24T05:29:40.545Z,67.44
2018-05-24T05:30:11.764Z,69.00
2018-05-24T05:30:43.047Z,68.69
2018-05-24T05:31:14.239Z,69.07
2018-05-24T05:31:45.479Z,67.76
2018-05-24T05:32:16.696Z,68.96
2018-05-24T05:32:47.893Z,69.80
2018-05-24T05:33:19.851Z,69.92
2018-05-24T05:33:51.099Z,69.76
2018-05-24T05:34:22.366Z,70.33
2018-05-24T05:34:53.569Z,69.89
2018-05-24T05:35:24.773Z,70.54
2018-05-24T05:35:55.989Z,70.18
2018-05-24T05:36:27.225Z,69.79
2018-05-24T05:36:58.505Z,69.51
2018-05-24T05:37:29.725Z,71.23
2018-05-24T05:38:00.953Z,71.74
2018-05-24T05:38:32.195Z,70.54
2018-05-24T05:39:03.418Z,69.96
2018-05-24T05:39:34.629Z,70.64
2018-05-24T05:40:05.844Z,70.23
2018-05-24T05:40:37.098Z,70.89
2018-05-24T05:41:08.309Z,71.07
2018-05-24T05:41:39.565Z,70.63
2018-05-24T05:42:10.788Z,70.81
2018-05-24T05:42:42.002Z,71.21
2018-05-24T05:43:13.222Z,70.73
2018-05-24T05:43:44.602Z,70.16
2018-05-24T05:44:15.821Z,69.29
2018-05-24T05:44:47.090Z,70.31
2018-05-24T05:45:18.263Z,71.56
2018-05-24T05:45:49.526Z,71.33
2018-05-24T05:46:20.796Z,71.10
2018-05-24T05:46:52.017Z,69.65
2018-05-24T05:47:23.237Z,68.50
2018-05-24T05:47:54.453Z,68.36
2018-05-24T05:48:25.670Z,68.57
2018-05-24T05:48:56.975Z,66.15
2018-05-24T05:49:28.178Z,66.07
2018-05-24T05:49:59.373Z,65.80
2018-05-24T05:50:30.593Z,65.09
2018-05-24T05:51:01.820Z,65.92
2018-05-24T05:51:33.109Z,65.34
2018-05-24T05:52:04.383Z,63.29
2018-05-24T05:52:35.601Z,62.88
2018-05-24T05:53:06.825Z,64.04
2018-05-24T05:53:38.044Z,64.32
2018-05-24T05:54:09.294Z,65.14
2018-05-24T05:54:40.521Z,65.38
2018-05-24T05:55:11.741Z,66.26
2018-05-24T05:55:42.958Z,66.04
2018-05-24T05:56:14.172Z,65.59
2018-05-24T05:56:45.386Z,65.99
2018-05-24T05:57:16.665Z,66.47
2018-05-24T05:57:47.896Z,66.66
2018-05-24T05:58:19.116Z,66.78
2018-05-24T05:58:50.329Z,66.24
2018-05-24T05:59:21.550Z,64.86
2018-05-24T05:59:52.785Z,64.45
2018-05-24T06:00:24.013Z,65.52
2018-05-24T06:00:55.222Z,65.27
2018-05-24T06:01:26.445Z,64.19
2018-05-24T06:01:57.704Z,64.06
2018-05-24T06:02:28.981Z,64.28
2018-05-24T06:03:00.248Z,63.74
2018-05-24T06:03:31.457Z,63.24
2018-05-24T06:04:02.673Z,63.45
2018-05-24T06:04:33.880Z,63.49
2018-05-24T06:05:05.089Z,63.20
2018-05-24T06:05:36.314Z,62.74
2018-05-24T06:06:07.531Z,64.30
2018-05-24T06:06:38.744Z,65.37
2018-05-24T06:07:09.941Z,65.04
2018-05-24T06:07:41.218Z,64.37
2018-05-24T06:08:12.441Z,64.45
2018-05-24T06:08:43.670Z,64.54
2018-05-24T06:09:14.869Z,65.36
2018-05-24T06:09:46.080Z,65.85
2018-05-24T06:10:17.348Z,66.93
2018-05-24T06:10:48.588Z,65.85
2018-05-24T06:11:19.825Z,66.39
2018-05-24T06:11:51.162Z,65.68
2018-05-24T06:12:22.379Z,67.43
2018-05-24T06:12:53.590Z,66.46
2018-05-24T06:13:24.783Z,66.18
2018-05-24T06:13:56.106Z,65.33
2018-05-24T06:14:27.334Z,65.72
2018-05-24T06:14:58.577Z,65.61
2018-05-24T06:15:29.849Z,65.10
2018-05-24T06:16:01.057Z,65.34
2018-05-24T06:16:32.290Z,64.56
2018-05-24T06:17:03.550Z,65.04
2018-05-24T06:17:34.773Z,63.73
2018-05-24T06:18:06.040Z,64.18
2018-05-24T06:18:37.254Z,63.74
2018-05-24T06:19:08.466Z,64.29
2018-05-24T06:19:39.654Z,64.38
2018-05-24T06:20:10.842Z,64.92
2018-05-24T06:20:42.046Z,64.81
2018-05-24T06:21:13.268Z,64.84
2018-05-24T06:21:44.515Z,65.08
2018-05-24T06:22:15.745Z,64.94
2018-05-24T06:22:46.993Z,63.83
2018-05-24T06:23:18.206Z,64.79
2018-05-24T06:23:49.417Z,65.44
2018-05-24T06:24:20.661Z,64.65
2018-05-24T06:24:51.870Z,64.54
2018-05-24T06:25:23.076Z,64.65
2018-05-24T06:25:54.289Z,65.53
2018-05-24T06:26:25.515Z,63.85
2018-05-24T06:26:56.729Z,64.63
2018-05-24T06:27:27.962Z,64.03
2018-05-24T06:27:59.226Z,64.81
2018-05-24T06:28:30.453Z,64.49
2018-05-24T06:29:01.710Z,64.37
2018-05-24T06:29:32.934Z,64.30
2018-05-24T06:30:04.138Z,64.23
2018-05-24T06:30:35.397Z,65.16
2018-05-24T06:31:06.598Z,65.35
2018-05-24T06:31:37.805Z,64.95
2018-05-24T06:32:09.017Z,63.62
2018-05-24T06:32:40.288Z,63.10
2018-05-24T06:33:11.520Z,64.70
2018-05-24T06:33:42.727Z,63.60
2018-05-24T06:34:13.947Z,64.50
2018-05-24T06:34:45.160Z,63.59
2018-05-24T06:35:16.374Z,63.33
2018-05-24T06:35:47.577Z,63.34
2018-05-24T06:36:18.788Z,63.79
2018-05-24T06:36:50.017Z,63.47
2018-05-24T06:37:21.261Z,63.16
2018-05-24T06:37:52.532Z,63.46
2018-05-24T06:38:23.750Z,64.34
2018-05-24T06:38:54.968Z,65.03
2018-05-24T06:39:26.176Z,65.07
2018-05-24T06:39:57.399Z,65.01
2018-05-24T06:40:28.629Z,65.76
2018-05-24T06:40:59.848Z,64.56
2018-05-24T06:41:31.052Z,64.51
2018-05-24T06:42:02.260Z,64.39
2018-05-24T06:42:33.473Z,64.94